Time;durP1;ratioP1;P1;durP2;ratioP2;P2;SDS_P1;SDS_P2;PMS_P1;PMS_P2;Temp;Humidity;BMP_temperature;BMP_pressure;BME280_temperature;BME280_humidity;BME280_pressure;Samples;Min_cycle;Max_cycle;Signal;HPM_P1;HPM_P2
2023/08/10 00:00:46;;;;;;;;;;;;;;;20.31;47.97;94601.59;4239353;27;19975;-78
2023/08/10 00:02:48;;;;;;;;;;;;;;;20.37;48.05;94609.50;4238258;27;19973;-80
2023/08/10 00:04:50;;;;;;;;;;;;;;;20.31;48.07;94612.25;4231453;27;20311;-79
2023/08/10 00:06:51;;;;;;;;;;;;;;;20.28;48.35;94605.50;4220243;28;19935;-79
2023/08/10 00:08:54;;;;;;;;;;;;;;;20.24;48.46;94606.97;4239020;27;19942;-78
2023/08/10 00:10:56;;;;;;;;;;;;;;;20.25;48.40;94612.06;4241708;27;19923;-80
2023/08/10 00:12:58;;;;;;;;;;;;;;;20.21;48.60;94605.56;4238784;27;19923;-78
2023/08/10 00:14:59;;;;;;;;;;;;;;;20.30;48.53;94611.41;4233375;28;20050;-78
2023/08/10 00:17:01;;;;;;;;;;;;;;;20.36;48.40;94613.19;4224752;28;19975;-80
2023/08/10 00:19:04;;;;;;;;;;;;;;;20.44;48.25;94609.44;4217062;28;20347;-79
2023/08/10 00:21:06;;;;;;;;;;;;;;;20.42;48.11;94612.28;4219263;28;19934;-81
2023/08/10 00:23:07;;;;;;;;;;;;;;;20.45;48.31;94609.19;4239162;28;19923;-82
2023/08/10 00:25:10;;;;;;;;;;;;;;;20.48;48.27;94605.28;4233538;28;20019;-81
2023/08/10 00:27:12;;;;;;;;;;;;;;;20.53;48.34;94597.44;4224090;28;19925;-80
2023/08/10 00:29:13;;;;;;;;;;;;;;;20.58;48.12;94602.13;4243553;27;20358;-80
2023/08/10 00:31:15;;;;;;;;;;;;;;;20.54;48.34;94592.91;4215225;28;20040;-80
2023/08/10 00:33:17;;;;;;;;;;;;;;;20.43;48.57;94592.66;4251137;27;19923;-80
2023/08/10 00:35:37;;;;;;;;;;;;;;;20.33;48.58;94587.03;4234616;27;19927;-80
2023/08/10 00:37:39;;;;;;;;;;;;;;;20.34;48.45;94588.66;4233357;27;19923;-80
2023/08/10 00:39:41;;;;;;;;;;;;;;;20.40;48.58;94592.28;4235017;27;20027;-79
2023/08/10 00:41:42;;;;;;;;;;;;;;;20.30;48.60;94590.13;4222989;28;19923;-80
2023/08/10 00:43:44;;;;;;;;;;;;;;;20.22;48.87;94582.47;4236015;27;19923;-78
2023/08/10 00:45:46;;;;;;;;;;;;;;;20.17;48.98;94582.28;4242430;27;19968;-78
2023/08/10 00:47:47;;;;;;;;;;;;;;;20.15;48.99;94585.16;4244692;27;19927;-79
2023/08/10 00:49:51;;;;;;;;;;;;;;;20.15;49.12;94579.03;4219436;28;19929;-81
2023/08/10 00:51:52;;;;;;;;;;;;;;;20.02;49.38;94577.34;4237753;27;19928;-80
2023/08/10 00:53:54;;;;;;;;;;;;;;;19.97;49.53;94570.03;4235211;27;19936;-80
2023/08/10 00:55:55;;;;;;;;;;;;;;;19.93;49.80;94560.88;4226226;28;19976;-80
2023/08/10 00:57:57;;;;;;;;;;;;;;;19.92;49.84;94563.72;4257801;27;19962;-79
2023/08/10 00:59:59;;;;;;;;;;;;;;;19.94;49.67;94573.13;4236955;27;19932;-78
2023/08/10 01:02:01;;;;;;;;;;;;;;;19.95;49.52;94569.44;4227980;28;19932;-78
2023/08/10 01:04:03;;;;;;;;;;;;;;;19.98;49.53;94562.84;4240844;27;19955;-80
2023/08/10 01:06:23;;;;;;;;;;;;;;;20.01;49.50;94565.09;4245340;27;19974;-79
2023/08/10 01:08:26;;;;;;;;;;;;;;;20.03;49.42;94571.00;4234427;27;20304;-80
2023/08/10 01:10:36;;;;;;;;;;;;;;;20.00;49.35;94574.91;4228916;27;19939;-80
2023/08/10 01:12:49;;;;;;;;;;;;;;;19.96;49.48;94573.72;4216918;28;20426;-79
2023/08/10 01:14:55;;;;;;;;;;;;;;;19.90;49.74;94568.47;4222275;28;19988;-80
2023/08/10 01:16:57;;;;;;;;;;;;;;;19.89;49.76;94575.63;4209713;28;19999;-79
2023/08/10 01:18:59;;;;;;;;;;;;;;;19.93;49.52;94578.66;4217689;28;19996;-78
2023/08/10 01:21:00;;;;;;;;;;;;;;;19.81;49.80;94573.25;4225611;27;19947;-79
2023/08/10 01:23:05;;;;;;;;;;;;;;;19.79;50.00;94580.66;4228132;27;19927;-81
2023/08/10 01:25:07;;;;;;;;;;;;;;;19.78;50.19;94573.69;4235746;27;19924;-78
2023/08/10 01:27:11;;;;;;;;;;;;;;;19.79;49.85;94580.66;4219142;28;19998;-79
2023/08/10 01:29:14;;;;;;;;;;;;;;;19.78;49.98;94582.47;4245137;27;19934;-79
2023/08/10 01:31:16;;;;;;;;;;;;;;;19.79;50.05;94575.34;4237459;27;19927;-80
2023/08/10 01:33:18;;;;;;;;;;;;;;;19.81;50.17;94591.84;4234402;27;20456;-78
2023/08/10 01:35:20;;;;;;;;;;;;;;;19.85;50.12;94585.06;4249460;27;19930;-79
2023/08/10 01:37:22;;;;;;;;;;;;;;;19.93;49.90;94591.97;4221984;27;19928;-78
2023/08/10 01:39:24;;;;;;;;;;;;;;;19.95;49.53;94589.91;4215552;28;19950;-80
2023/08/10 01:41:26;;;;;;;;;;;;;;;19.91;49.97;94580.72;4224172;28;20286;-79
2023/08/10 01:43:28;;;;;;;;;;;;;;;19.93;49.78;94586.63;4233967;27;19931;-78
2023/08/10 01:45:30;;;;;;;;;;;;;;;19.97;49.68;94587.81;4234062;27;19928;-80
2023/08/10 01:47:52;;;;;;;;;;;;;;;20.01;49.44;94589.81;4243695;27;20165;-77
2023/08/10 01:49:59;;;;;;;;;;;;;;;20.10;49.49;94593.00;4232162;27;19927;-81
2023/08/10 01:52:02;;;;;;;;;;;;;;;20.14;49.52;94588.88;4216439;28;20284;-80
2023/08/10 01:54:04;;;;;;;;;;;;;;;20.16;49.66;94583.34;4216674;27;19924;-80
2023/08/10 01:56:06;;;;;;;;;;;;;;;20.15;49.65;94579.03;4243597;27;20014;-79
2023/08/10 01:58:08;;;;;;;;;;;;;;;20.13;49.36;94583.78;4243796;27;19931;-79
2023/08/10 02:00:12;;;;;;;;;;;;;;;20.12;49.47;94582.16;4230788;28;19928;-80
2023/08/10 02:02:13;;;;;;;;;;;;;;;20.05;49.89;94577.72;4249667;27;19932;-76
2023/08/10 02:04:15;;;;;;;;;;;;;;;20.04;49.43;94577.94;4249800;27;19980;-80
2023/08/10 02:06:17;;;;;;;;;;;;;;;20.03;49.62;94576.31;4245354;27;19967;-80
2023/08/10 02:08:18;;;;;;;;;;;;;;;20.02;49.78;94583.47;4238731;27;19928;-81
2023/08/10 02:10:21;;;;;;;;;;;;;;;20.03;49.82;94586.94;4242019;27;20373;-81
2023/08/10 02:12:23;;;;;;;;;;;;;;;20.07;49.66;94595.28;4221465;28;20317;-79
2023/08/10 02:14:27;;;;;;;;;;;;;;;19.97;50.05;94590.50;4224614;28;19928;-79
2023/08/10 02:16:28;;;;;;;;;;;;;;;19.94;50.12;94594.41;4230783;27;20412;-78
2023/08/10 02:18:30;;;;;;;;;;;;;;;19.95;50.08;94598.69;4242372;27;19943;-82
2023/08/10 02:20:32;;;;;;;;;;;;;;;19.99;50.12;94604.38;4230072;27;19932;-79
2023/08/10 02:22:33;;;;;;;;;;;;;;;20.01;50.05;94607.63;4222754;28;20365;-80
2023/08/10 02:24:35;;;;;;;;;;;;;;;19.99;49.89;94618.47;4238469;27;19923;-80
2023/08/10 02:26:36;;;;;;;;;;;;;;;20.06;50.12;94621.06;4253917;27;19935;-81
2023/08/10 02:28:38;;;;;;;;;;;;;;;20.11;49.82;94623.06;4245265;27;20541;-80
2023/08/10 02:30:41;;;;;;;;;;;;;;;20.15;49.78;94637.56;4215145;28;19935;-80
2023/08/10 02:32:42;;;;;;;;;;;;;;;20.19;49.57;94647.53;4243959;27;19938;-80
2023/08/10 02:34:44;;;;;;;;;;;;;;;20.26;49.75;94666.06;4233570;27;19931;-78
2023/08/10 02:36:46;;;;;;;;;;;;;;;20.28;49.69;94668.53;4243210;27;20002;-80
2023/08/10 02:38:47;;;;;;;;;;;;;;;20.21;50.35;94674.72;4238598;27;19930;-78
2023/08/10 02:40:51;;;;;;;;;;;;;;;20.21;51.29;94680.03;4229419;27;19935;-79
2023/08/10 02:42:53;;;;;;;;;;;;;;;20.21;51.37;94682.69;4229579;27;19928;-79
2023/08/10 02:44:55;;;;;;;;;;;;;;;20.18;52.38;94696.44;4234514;27;19939;-78
2023/08/10 02:46:57;;;;;;;;;;;;;;;20.16;53.69;94692.38;4232335;27;19927;-80
2023/08/10 02:49:01;;;;;;;;;;;;;;;20.16;54.96;94709.16;4235219;27;19969;-79
2023/08/10 02:51:03;;;;;;;;;;;;;;;20.12;55.83;94707.16;4239630;27;19986;-79
2023/08/10 02:53:05;;;;;;;;;;;;;;;20.07;55.69;94714.94;4241765;27;20332;-80
2023/08/10 02:55:07;;;;;;;;;;;;;;;19.96;55.56;94719.13;4234346;27;19932;-80
2023/08/10 02:57:08;;;;;;;;;;;;;;;19.88;56.31;94719.41;4235096;27;20037;-81
2023/08/10 02:59:10;;;;;;;;;;;;;;;19.65;57.28;94726.88;4211140;28;20359;-79
2023/08/10 03:01:12;;;;;;;;;;;;;;;19.52;58.14;94729.63;4232670;27;19923;-77
2023/08/10 03:03:14;;;;;;;;;;;;;;;19.48;58.72;94730.28;4244689;27;20343;-79
2023/08/10 03:05:19;;;;;;;;;;;;;;;19.36;60.13;94735.44;4242564;27;20327;-79
2023/08/10 03:07:20;;;;;;;;;;;;;;;19.38;60.94;94744.84;4216022;28;20007;-78
2023/08/10 03:09:22;;;;;;;;;;;;;;;19.30;61.84;94739.75;4215461;28;20103;-82
2023/08/10 03:11:23;;;;;;;;;;;;;;;19.31;61.10;94732.59;4226111;28;19927;-79
2023/08/10 03:13:25;;;;;;;;;;;;;;;19.26;61.81;94738.56;4215275;28;19930;-79
2023/08/10 03:15:27;;;;;;;;;;;;;;;19.20;63.16;94732.25;4228715;27;19928;-79
2023/08/10 03:17:28;;;;;;;;;;;;;;;19.19;63.39;94727.16;4240087;27;19924;-78
2023/08/10 03:19:30;;;;;;;;;;;;;;;19.16;63.77;94733.69;4244226;27;19935;-82
2023/08/10 03:21:32;;;;;;;;;;;;;;;19.14;64.11;94727.75;4220126;28;19924;-81
2023/08/10 03:23:33;;;;;;;;;;;;;;;19.11;64.31;94725.56;4233074;27;19950;-78
2023/08/10 03:25:35;;;;;;;;;;;;;;;19.00;65.27;94726.22;4231284;27;19930;-80
2023/08/10 03:27:38;;;;;;;;;;;;;;;18.96;66.39;94725.00;4242751;27;19927;-80
2023/08/10 03:29:40;;;;;;;;;;;;;;;18.98;66.45;94717.66;4244141;27;20006;-80
2023/08/10 03:31:43;;;;;;;;;;;;;;;18.96;66.20;94725.00;4232388;27;19947;-79
2023/08/10 03:33:44;;;;;;;;;;;;;;;18.93;65.58;94718.28;4243690;27;19935;-82
2023/08/10 03:35:46;;;;;;;;;;;;;;;18.87;65.43;94716.47;4233042;27;19938;-80
2023/08/10 03:37:51;;;;;;;;;;;;;;;18.83;65.48;94723.22;4223400;27;20213;-81
2023/08/10 03:39:53;;;;;;;;;;;;;;;18.82;66.38;94714.44;4231111;27;19948;-81
2023/08/10 03:41:55;;;;;;;;;;;;;;;18.81;65.78;94720.75;4219896;27;19967;-79
2023/08/10 03:43:56;;;;;;;;;;;;;;;18.78;65.91;94726.50;4231515;27;20366;-79
2023/08/10 03:45:58;;;;;;;;;;;;;;;18.77;65.44;94730.13;4230950;27;19957;-82
2023/08/10 03:48:00;;;;;;;;;;;;;;;18.77;65.35;94732.78;4220369;28;20007;-79
2023/08/10 03:50:02;;;;;;;;;;;;;;;18.83;65.49;94731.97;4221262;27;19953;-79
2023/08/10 03:52:03;;;;;;;;;;;;;;;18.86;65.32;94730.75;4243556;27;20090;-80
2023/08/10 03:54:06;;;;;;;;;;;;;;;18.91;65.04;94746.06;4244372;27;19923;-84
2023/08/10 03:56:07;;;;;;;;;;;;;;;18.92;63.78;94751.16;4237473;27;19931;-80
2023/08/10 03:58:09;;;;;;;;;;;;;;;18.95;63.07;94755.22;4236747;27;19991;-78
2023/08/10 04:00:13;;;;;;;;;;;;;;;18.95;63.73;94761.34;4241622;27;20073;-81
2023/08/10 04:02:14;;;;;;;;;;;;;;;18.97;63.80;94767.28;4226775;27;20027;-82
2023/08/10 04:04:16;;;;;;;;;;;;;;;18.94;64.24;94766.88;4234443;27;19924;-82
2023/08/10 04:06:18;;;;;;;;;;;;;;;18.94;64.75;94772.19;4231507;27;19935;-83
2023/08/10 04:08:19;;;;;;;;;;;;;;;18.87;64.94;94763.44;4227833;28;19928;-80
2023/08/10 04:10:21;;;;;;;;;;;;;;;18.87;64.86;94758.13;4243181;27;19942;-81
2023/08/10 04:12:23;;;;;;;;;;;;;;;18.83;65.80;94747.09;4229750;28;20035;-80
2023/08/10 04:14:24;;;;;;;;;;;;;;;18.80;66.04;94753.66;4214976;28;19923;-82
2023/08/10 04:16:26;;;;;;;;;;;;;;;18.84;66.02;94767.28;4207906;28;19931;-81
2023/08/10 04:18:28;;;;;;;;;;;;;;;18.83;65.92;94768.34;4227449;28;19973;-79
2023/08/10 04:20:30;;;;;;;;;;;;;;;18.86;65.82;94767.91;4239606;27;19953;-81
2023/08/10 04:22:31;;;;;;;;;;;;;;;18.84;66.02;94772.59;4255785;27;19930;-82
2023/08/10 04:24:33;;;;;;;;;;;;;;;18.84;66.19;94780.56;4235382;28;19937;-80
2023/08/10 04:26:35;;;;;;;;;;;;;;;18.82;66.37;94788.75;4214516;28;20002;-79
2023/08/10 04:28:37;;;;;;;;;;;;;;;18.85;66.80;94799.97;4229548;28;19928;-80
2023/08/10 04:30:38;;;;;;;;;;;;;;;18.71;67.43;94805.25;4243371;28;20391;-80
2023/08/10 04:32:40;;;;;;;;;;;;;;;18.60;68.29;94816.50;4245069;28;19931;-79
2023/08/10 04:34:45;;;;;;;;;;;;;;;18.44;68.87;94815.09;4246225;28;20020;-80
2023/08/10 04:36:46;;;;;;;;;;;;;;;18.37;69.77;94820.41;4222767;28;19996;-79
2023/08/10 04:38:48;;;;;;;;;;;;;;;18.30;69.92;94808.97;4229842;28;19949;-82
2023/08/10 04:40:49;;;;;;;;;;;;;;;18.28;70.12;94813.66;4212834;28;20445;-80
2023/08/10 04:42:51;;;;;;;;;;;;;;;18.29;70.59;94817.97;4227927;28;19928;-80
2023/08/10 04:44:54;;;;;;;;;;;;;;;18.31;70.58;94821.22;4241850;28;19971;-81
2023/08/10 04:46:57;;;;;;;;;;;;;;;18.32;70.69;94817.53;4213409;28;20410;-79
2023/08/10 04:49:01;;;;;;;;;;;;;;;18.29;69.69;94814.50;4228958;28;19963;-81
2023/08/10 04:51:04;;;;;;;;;;;;;;;18.30;70.08;94814.28;4207398;28;20306;-78
2023/08/10 04:53:05;;;;;;;;;;;;;;;18.31;69.66;94809.81;4198376;28;19967;-82
2023/08/10 04:55:10;;;;;;;;;;;;;;;18.33;69.83;94813.06;4203864;28;19937;-80
2023/08/10 04:57:12;;;;;;;;;;;;;;;18.34;70.17;94817.34;4204038;28;20118;-82
2023/08/10 04:59:14;;;;;;;;;;;;;;;18.33;70.54;94813.88;4208707;28;19927;-81
2023/08/10 05:01:16;;;;;;;;;;;;;;;18.35;70.53;94819.00;4195055;28;20037;-82
2023/08/10 05:03:18;;;;;;;;;;;;;;;18.37;70.48;94815.09;4200303;28;20331;-82
2023/08/10 05:05:22;;;;;;;;;;;;;;;18.40;70.32;94819.19;4208921;28;20038;-80
2023/08/10 05:07:26;;;;;;;;;;;;;;;18.35;70.14;94811.03;4199894;28;19974;-82
2023/08/10 05:09:27;;;;;;;;;;;;;;;18.35;70.52;94811.03;4207519;28;19985;-81
2023/08/10 05:11:32;;;;;;;;;;;;;;;18.33;70.63;94816.53;4211373;28;19927;-79
2023/08/10 05:13:34;;;;;;;;;;;;;;;18.32;70.89;94811.41;4205424;28;20340;-81
2023/08/10 05:15:36;;;;;;;;;;;;;;;18.33;70.49;94800.63;4209019;28;19928;-81
2023/08/10 05:17:41;;;;;;;;;;;;;;;18.22;70.00;94798.59;4201394;28;19990;-80
2023/08/10 05:19:46;;;;;;;;;;;;;;;18.05;71.05;94790.22;4206811;28;20199;-82
2023/08/10 05:21:47;;;;;;;;;;;;;;;18.08;71.47;94787.16;4206761;28;19994;-79
2023/08/10 05:23:49;;;;;;;;;;;;;;;18.16;71.74;94786.13;4215018;28;19924;-81
2023/08/10 05:25:51;;;;;;;;;;;;;;;18.17;71.66;94779.81;4206877;28;19935;-79
2023/08/10 05:27:52;;;;;;;;;;;;;;;18.18;71.55;94778.81;4222511;28;19924;-78
2023/08/10 05:29:54;;;;;;;;;;;;;;;18.09;71.99;94783.50;4212413;28;19932;-81
2023/08/10 05:31:56;;;;;;;;;;;;;;;17.98;72.41;94776.97;4213264;28;20088;-79
2023/08/10 05:33:57;;;;;;;;;;;;;;;17.97;72.87;94780.63;4223301;28;19936;-80
2023/08/10 05:35:59;;;;;;;;;;;;;;;18.04;72.89;94777.16;4245585;27;19991;-80
2023/08/10 05:38:01;;;;;;;;;;;;;;;18.10;72.65;94785.09;4222286;28;19932;-80
2023/08/10 05:40:09;;;;;;;;;;;;;;;18.14;72.35;94780.22;4247429;28;20302;-79
2023/08/10 05:42:15;;;;;;;;;;;;;;;18.11;73.25;94773.50;4214608;28;20125;-77
2023/08/10 05:44:17;;;;;;;;;;;;;;;18.07;73.42;94759.03;4220045;28;19916;-80
2023/08/10 05:46:18;;;;;;;;;;;;;;;18.00;73.71;94752.88;4218820;28;19951;-79
2023/08/10 05:48:20;;;;;;;;;;;;;;;17.99;73.71;94746.78;4246095;27;19923;-79
2023/08/10 05:50:22;;;;;;;;;;;;;;;17.89;74.40;94749.00;4260180;27;19923;-79
2023/08/10 05:52:29;;;;;;;;;;;;;;;17.69;74.20;94754.25;4240363;27;19931;-80
2023/08/10 05:54:31;;;;;;;;;;;;;;;16.71;76.57;94761.63;4234708;28;19918;-81
2023/08/10 05:56:32;;;;;;;;;;;;;;;16.48;77.91;94775.94;4248523;27;20472;-80
2023/08/10 05:58:36;;;;;;;;;;;;;;;16.32;79.35;94782.31;4218361;28;20375;-81
2023/08/10 06:00:39;;;;;;;;;;;;;;;16.23;80.06;94783.47;4241353;27;19969;-82
2023/08/10 06:02:42;;;;;;;;;;;;;;;16.15;80.42;94783.63;4239789;27;19999;-82
2023/08/10 06:04:45;;;;;;;;;;;;;;;16.23;80.85;94778.19;4245508;27;19928;-85
2023/08/10 06:06:49;;;;;;;;;;;;;;;16.41;81.06;94776.91;4220433;27;20038;-80
2023/08/10 06:08:50;;;;;;;;;;;;;;;16.67;81.66;94778.88;4252694;27;19924;-80
2023/08/10 06:10:52;;;;;;;;;;;;;;;16.78;79.69;94779.16;4250224;27;19924;-83
2023/08/10 06:12:54;;;;;;;;;;;;;;;16.88;78.90;94772.72;4249079;27;19971;-78
2023/08/10 06:14:55;;;;;;;;;;;;;;;16.86;77.73;94766.81;4217505;28;19951;-80
2023/08/10 06:16:57;;;;;;;;;;;;;;;16.61;78.20;94771.75;4233764;27;19943;-80
2023/08/10 06:18:59;;;;;;;;;;;;;;;16.57;78.87;94771.31;4239456;27;19999;-80
2023/08/10 06:21:04;;;;;;;;;;;;;;;16.46;78.36;94771.88;4233351;27;19935;-81
2023/08/10 06:23:06;;;;;;;;;;;;;;;16.56;78.48;94778.44;4231864;27;19924;-81
2023/08/10 06:25:09;;;;;;;;;;;;;;;16.63;78.05;94783.78;4209815;28;20007;-82
2023/08/10 06:27:11;;;;;;;;;;;;;;;16.83;78.83;94783.09;4244096;27;20370;-84
2023/08/10 06:29:12;;;;;;;;;;;;;;;17.02;78.22;94795.59;4214387;27;20042;-81
2023/08/10 06:31:16;;;;;;;;;;;;;;;17.16;77.04;94802.59;4213590;28;19928;-78
2023/08/10 06:33:19;;;;;;;;;;;;;;;17.33;76.63;94810.19;4223529;28;20094;-81
2023/08/10 06:35:21;;;;;;;;;;;;;;;17.47;75.72;94811.88;4236541;27;19935;-81
2023/08/10 06:37:23;;;;;;;;;;;;;;;17.56;75.16;94815.16;4236865;27;19927;-79
2023/08/10 06:39:27;;;;;;;;;;;;;;;17.48;73.71;94823.28;4202481;28;19967;-80
2023/08/10 06:41:29;;;;;;;;;;;;;;;17.42;74.81;94821.41;4242564;27;19924;-80
2023/08/10 06:43:30;;;;;;;;;;;;;;;17.34;75.07;94822.44;4245940;27;20220;-80
2023/08/10 06:45:39;;;;;;;;;;;;;;;17.29;74.69;94817.69;4229246;27;20366;-80
2023/08/10 06:47:43;;;;;;;;;;;;;;;16.99;75.15;94815.34;4237195;27;19981;-79
2023/08/10 06:49:45;;;;;;;;;;;;;;;16.81;76.07;94816.88;4246542;27;19951;-79
2023/08/10 06:51:52;;;;;;;;;;;;;;;16.97;76.78;94816.53;4227972;28;19955;-80
2023/08/10 06:53:55;;;;;;;;;;;;;;;17.15;76.41;94816.03;4246991;27;19928;-81
2023/08/10 06:55:58;;;;;;;;;;;;;;;17.31;75.63;94822.81;4231835;27;20211;-81
2023/08/10 06:58:00;;;;;;;;;;;;;;;17.18;74.19;94819.06;4245348;27;20018;-81
2023/08/10 07:00:03;;;;;;;;;;;;;;;16.78;75.29;94823.34;4227870;28;19957;-81
2023/08/10 07:02:08;;;;;;;;;;;;;;;16.81;75.92;94825.59;4244930;27;19923;-79
2023/08/10 07:04:14;;;;;;;;;;;;;;;16.79;75.56;94822.31;4217326;28;19946;-81
2023/08/10 07:06:17;;;;;;;;;;;;;;;16.85;75.33;94829.50;4244356;27;19938;-80
2023/08/10 07:08:19;;;;;;;;;;;;;;;16.86;74.83;94827.66;4226513;27;20423;-81
2023/08/10 07:10:21;;;;;;;;;;;;;;;17.02;75.35;94829.19;4228400;28;20459;-80
2023/08/10 07:12:22;;;;;;;;;;;;;;;17.12;75.69;94825.19;4245404;27;19931;-84
2023/08/10 07:14:24;;;;;;;;;;;;;;;17.03;75.25;94830.81;4224366;28;20381;-80
2023/08/10 07:16:26;;;;;;;;;;;;;;;16.85;75.65;94828.69;4237558;27;19934;-82
2023/08/10 07:18:27;;;;;;;;;;;;;;;16.99;76.63;94825.09;4232879;27;19970;-79
2023/08/10 07:20:29;;;;;;;;;;;;;;;17.19;76.13;94830.50;4218873;28;20270;-80
2023/08/10 07:22:31;;;;;;;;;;;;;;;17.26;75.26;94826.03;4244787;27;19931;-84
2023/08/10 07:24:32;;;;;;;;;;;;;;;17.10;74.60;94826.38;4226992;28;20030;-81
2023/08/10 07:26:34;;;;;;;;;;;;;;;16.89;76.03;94824.66;4245923;27;20374;-78
2023/08/10 07:28:36;;;;;;;;;;;;;;;16.92;76.49;94838.28;4227106;28;19927;-82
2023/08/10 07:30:37;;;;;;;;;;;;;;;17.16;76.83;94837.00;4225804;28;20311;-79
2023/08/10 07:32:42;;;;;;;;;;;;;;;17.19;75.41;94839.25;4244860;27;19978;-84
2023/08/10 07:34:44;;;;;;;;;;;;;;;17.24;75.53;94832.56;4234261;27;19928;-85
2023/08/10 07:36:45;;;;;;;;;;;;;;;17.24;75.77;94832.56;4242156;27;19932;-83
2023/08/10 07:38:47;;;;;;;;;;;;;;;17.15;75.19;94834.56;4243463;27;19927;-81
2023/08/10 07:40:49;;;;;;;;;;;;;;;17.32;75.70;94833.19;4217643;28;20023;-85
2023/08/10 07:42:50;;;;;;;;;;;;;;;17.61;75.37;94839.22;4229051;27;19953;-82
2023/08/10 07:44:52;;;;;;;;;;;;;;;17.84;74.16;94844.19;4241745;27;19941;-81
2023/08/10 07:46:54;;;;;;;;;;;;;;;17.98;73.28;94834.44;4241859;27;19924;-80
2023/08/10 07:48:56;;;;;;;;;;;;;;;18.07;73.05;94838.53;4239449;27;19955;-82
2023/08/10 07:50:58;;;;;;;;;;;;;;;18.17;72.19;94838.94;4207623;28;19924;-81
2023/08/10 07:53:02;;;;;;;;;;;;;;;18.40;72.32;94843.06;4231259;27;20030;-84
2023/08/10 07:55:04;;;;;;;;;;;;;;;18.65;72.26;94835.28;4223280;28;19924;-82
2023/08/10 07:57:06;;;;;;;;;;;;;;;18.89;70.99;94838.34;4245921;27;20446;-80
2023/08/10 07:59:08;;;;;;;;;;;;;;;19.08;69.65;94844.63;4225651;27;19934;-80
2023/08/10 08:01:10;;;;;;;;;;;;;;;19.18;68.68;94842.34;4227654;28;20043;-83
2023/08/10 08:03:12;;;;;;;;;;;;;;;19.28;68.28;94841.94;4243606;27;19984;-82
2023/08/10 08:05:14;;;;;;;;;;;;;;;19.41;68.57;94839.22;4241456;27;19931;-80
2023/08/10 08:07:16;;;;;;;;;;;;;;;19.60;68.26;94842.84;4231459;27;19923;-84
2023/08/10 08:09:22;;;;;;;;;;;;;;;19.65;66.82;94835.84;4232197;27;19927;-83
2023/08/10 08:11:28;;;;;;;;;;;;;;;19.71;66.83;94836.06;4232306;27;19932;-81
2023/08/10 08:13:33;;;;;;;;;;;;;;;19.64;67.11;94838.72;4227131;28;19927;-82
2023/08/10 08:15:34;;;;;;;;;;;;;;;19.50;66.86;94839.81;4216413;28;19935;-82
2023/08/10 08:17:58;;;;;;;;;;;;;;;19.34;66.67;94838.44;4226807;28;19951;-82
2023/08/10 08:20:28;;;;;;;;;;;;;;;19.01;67.15;94840.16;4239211;27;20019;-79
2023/08/10 08:22:29;;;;;;;;;;;;;;;18.62;68.01;94852.41;4230455;27;20454;-80
2023/08/10 08:24:31;;;;;;;;;;;;;;;18.57;67.70;94843.47;4232621;28;20212;-83
2023/08/10 08:26:33;;;;;;;;;;;;;;;18.69;67.65;94847.13;4220344;28;19924;-82
2023/08/10 08:28:35;;;;;;;;;;;;;;;18.92;67.81;94838.75;4227728;28;19949;-83
2023/08/10 08:30:38;;;;;;;;;;;;;;;19.05;66.51;94847.72;4230108;28;19927;-83
2023/08/10 08:32:39;;;;;;;;;;;;;;;19.18;66.89;94843.16;4230550;28;19939;-79
2023/08/10 08:34:52;;;;;;;;;;;;;;;19.30;66.89;94842.53;4227823;28;19985;-79
2023/08/10 08:36:55;;;;;;;;;;;;;;;19.46;66.48;94835.94;4242392;28;19938;-81
2023/08/10 08:38:56;;;;;;;;;;;;;;;19.16;65.20;94844.41;4227586;28;19928;-83
2023/08/10 08:40:59;;;;;;;;;;;;;;;19.08;65.10;94845.47;4231373;28;20030;-82
2023/08/10 08:43:00;;;;;;;;;;;;;;;19.23;65.17;94842.56;4196805;28;19928;-81
2023/08/10 08:45:03;;;;;;;;;;;;;;;19.51;65.32;94839.59;4209759;28;19928;-81
2023/08/10 08:47:05;;;;;;;;;;;;;;;19.69;63.92;94844.22;4212000;28;19935;-81
2023/08/10 08:49:06;;;;;;;;;;;;;;;19.55;63.61;94843.47;4231598;27;19932;-81
2023/08/10 08:51:08;;;;;;;;;;;;;;;19.33;63.32;94834.13;4213525;28;20400;-81
2023/08/10 08:53:10;;;;;;;;;;;;;;;19.47;63.41;94838.38;4246068;27;19946;-80
2023/08/10 08:55:12;;;;;;;;;;;;;;;19.63;63.66;94845.84;4217040;28;19938;-81
2023/08/10 08:57:14;;;;;;;;;;;;;;;19.89;64.02;94852.09;4234961;27;19925;-81
2023/08/10 08:59:16;;;;;;;;;;;;;;;20.03;62.20;94852.88;4252945;27;19927;-81
2023/08/10 09:01:17;;;;;;;;;;;;;;;19.82;60.85;94856.66;4242511;27;20315;-82
2023/08/10 09:03:22;;;;;;;;;;;;;;;19.74;61.12;94855.03;4221497;28;19938;-81
2023/08/10 09:05:24;;;;;;;;;;;;;;;19.81;62.02;94849.69;4241008;27;19931;-80
2023/08/10 09:07:26;;;;;;;;;;;;;;;19.85;61.14;94848.25;4233502;27;20001;-81
2023/08/10 09:09:28;;;;;;;;;;;;;;;19.98;61.95;94845.53;4225459;28;20323;-80
2023/08/10 09:11:30;;;;;;;;;;;;;;;20.14;63.22;94840.72;4229190;28;20373;-82
2023/08/10 09:13:32;;;;;;;;;;;;;;;20.35;61.80;94845.69;4237876;27;20394;-81
2023/08/10 09:15:33;;;;;;;;;;;;;;;20.54;60.38;94841.25;4240658;27;19950;-82
2023/08/10 09:17:35;;;;;;;;;;;;;;;20.60;60.93;94847.56;4215172;28;19982;-80
2023/08/10 09:19:38;;;;;;;;;;;;;;;20.67;61.13;94853.63;4215199;28;19936;-80
2023/08/10 09:21:39;;;;;;;;;;;;;;;20.69;60.70;94856.91;4214230;28;19928;-82
2023/08/10 09:23:43;;;;;;;;;;;;;;;20.70;60.27;94855.88;4220611;28;19924;-84
2023/08/10 09:25:45;;;;;;;;;;;;;;;20.56;58.70;94852.47;4228825;28;19981;-79
2023/08/10 09:27:48;;;;;;;;;;;;;;;20.53;59.90;94844.13;4198975;28;20053;-81
2023/08/10 09:29:49;;;;;;;;;;;;;;;20.44;58.85;94852.38;4195035;28;19924;-81
2023/08/10 09:31:51;;;;;;;;;;;;;;;20.41;58.68;94852.81;4228699;27;19927;-81
2023/08/10 09:33:56;;;;;;;;;;;;;;;20.45;58.59;94848.66;4212692;28;19966;-81
2023/08/10 09:35:59;;;;;;;;;;;;;;;20.31;58.62;94839.16;4229587;28;20385;-82
2023/08/10 09:38:04;;;;;;;;;;;;;;;20.17;58.78;94838.44;4188976;28;20356;-85
2023/08/10 09:40:07;;;;;;;;;;;;;;;19.88;59.38;94845.16;4209377;28;19974;-83
2023/08/10 09:42:09;;;;;;;;;;;;;;;19.74;59.57;94846.25;4220904;28;20567;-83
2023/08/10 09:44:11;;;;;;;;;;;;;;;19.73;59.73;94839.31;4221431;28;19928;-83
2023/08/10 09:46:14;;;;;;;;;;;;;;;19.68;60.39;94837.28;4209043;28;19924;-79
2023/08/10 09:48:15;;;;;;;;;;;;;;;19.86;60.11;94835.78;4213752;28;19948;-83
2023/08/10 09:50:17;;;;;;;;;;;;;;;20.13;60.20;94825.78;4220756;28;19944;-82
2023/08/10 09:52:19;;;;;;;;;;;;;;;20.16;59.34;94820.84;4216011;28;19928;-78
2023/08/10 09:54:21;;;;;;;;;;;;;;;20.04;58.95;94830.53;4227350;28;20379;-81
2023/08/10 09:56:22;;;;;;;;;;;;;;;20.20;58.67;94829.22;4196145;28;20019;-80
2023/08/10 09:58:24;;;;;;;;;;;;;;;20.50;58.27;94832.06;4216099;28;19966;-80
2023/08/10 10:00:26;;;;;;;;;;;;;;;20.81;57.92;94822.41;4200290;28;19928;-80
2023/08/10 10:02:27;;;;;;;;;;;;;;;21.06;56.86;94825.03;4209532;28;19955;-81
2023/08/10 10:04:30;;;;;;;;;;;;;;;20.76;56.02;94825.72;4215527;28;19936;-81
2023/08/10 10:06:32;;;;;;;;;;;;;;;20.66;56.58;94836.84;4194666;28;19928;-81
2023/08/10 10:08:34;;;;;;;;;;;;;;;20.52;57.22;94830.00;4204908;28;20082;-80
2023/08/10 10:10:37;;;;;;;;;;;;;;;20.58;57.36;94829.13;4224199;28;19980;-82
2023/08/10 10:12:39;;;;;;;;;;;;;;;20.74;58.14;94827.78;4211338;28;19955;-82
2023/08/10 10:14:42;;;;;;;;;;;;;;;20.96;57.08;94822.84;4204521;28;19928;-84
2023/08/10 10:16:44;;;;;;;;;;;;;;;21.23;56.91;94831.41;4202408;28;19950;-83
2023/08/10 10:18:46;;;;;;;;;;;;;;;21.21;55.67;94830.00;4211766;28;20009;-79
2023/08/10 10:20:47;;;;;;;;;;;;;;;21.15;55.12;94830.88;4227862;27;19928;-81
2023/08/10 10:22:49;;;;;;;;;;;;;;;21.32;55.33;94823.09;4212534;28;19928;-80
2023/08/10 10:24:51;;;;;;;;;;;;;;;21.26;54.54;94830.94;4205995;28;20015;-80
2023/08/10 10:27:00;;;;;;;;;;;;;;;21.05;54.22;94824.19;4216766;27;20014;-81
2023/08/10 10:29:11;;;;;;;;;;;;;;;20.84;55.23;94828.09;4226855;28;20236;-84
2023/08/10 10:31:13;;;;;;;;;;;;;;;20.97;54.96;94819.19;4221756;28;19923;-80
2023/08/10 10:33:16;;;;;;;;;;;;;;;20.93;55.30;94830.47;4211419;28;19954;-79
2023/08/10 10:35:23;;;;;;;;;;;;;;;21.12;56.22;94829.44;4210501;28;20370;-80
2023/08/10 10:37:35;;;;;;;;;;;;;;;21.40;56.02;94826.28;4209821;28;19928;-79
2023/08/10 10:39:38;;;;;;;;;;;;;;;21.62;54.93;94813.31;4211656;28;20070;-81